Time;durP1;ratioP1;P1;durP2;ratioP2;P2;SDS_P1;SDS_P2;PMS_P1;PMS_P2;Temp;Humidity;BMP_temperature;BMP_pressure;BME280_temperature;BME280_humidity;BME280_pressure;Samples;Min_cycle;Max_cycle;Signal;HPM_P1;HPM_P2
2023/08/03 00:01:08;;;;;;;3.70;2.90;;;;;;;19.66;67.99;96555.60;107261;1273;22564;-79
2023/08/03 00:03:37;;;;;;;6.50;3.60;;;;;;;19.63;68.02;96555.10;107311;1273;25607;-79
2023/08/03 00:06:05;;;;;;;4.10;3.10;;;;;;;19.62;68.19;96556.04;107211;1273;23026;-79
2023/08/03 00:08:33;;;;;;;6.80;3.50;;;;;;;19.64;68.30;96559.31;107234;1260;22603;-80
2023/08/03 00:11:01;;;;;;;5.20;2.90;;;;;;;19.67;68.37;96552.88;107253;1273;25281;-79
2023/08/03 00:13:29;;;;;;;6.10;2.50;;;;;;;19.71;68.55;96555.60;107345;1273;22514;-80
2023/08/03 00:15:57;;;;;;;4.70;3.30;;;;;;;19.76;68.73;96558.41;107268;1273;23042;-81
2023/08/03 00:18:25;;;;;;;7.00;3.10;;;;;;;19.80;68.89;96564.34;107257;1273;24242;-80
2023/08/03 00:20:53;;;;;;;5.40;3.40;;;;;;;19.81;68.64;96568.02;107322;1273;22514;-79
2023/08/03 00:23:21;;;;;;;3.20;2.90;;;;;;;19.81;69.06;96568.39;107363;1273;25269;-79
2023/08/03 00:25:49;;;;;;;5.60;3.30;;;;;;;19.87;69.10;96572.70;107378;1273;22583;-79
2023/08/03 00:28:20;;;;;;;4.00;2.90;;;;;;;19.92;68.98;96571.52;107229;1273;186509;-79
2023/08/03 00:30:48;;;;;;;3.90;2.80;;;;;;;19.96;68.86;96570.02;107352;1273;23567;-79
2023/08/03 00:33:16;;;;;;;4.60;2.70;;;;;;;19.98;68.71;96570.11;107382;1273;25558;-79
2023/08/03 00:35:44;;;;;;;3.90;2.50;;;;;;;19.95;68.73;96567.92;107379;1273;25342;-79
2023/08/03 00:38:12;;;;;;;4.90;3.00;;;;;;;19.95;68.85;96568.55;107358;1273;24228;-79
2023/08/03 00:40:40;;;;;;;5.20;2.90;;;;;;;19.95;68.97;96572.45;107360;1273;22696;-80
2023/08/03 00:43:08;;;;;;;5.60;2.70;;;;;;;19.93;68.83;96579.26;107394;1273;22656;-81
2023/08/03 00:45:36;;;;;;;4.60;2.40;;;;;;;19.87;68.95;96591.59;107245;1273;25428;-80
2023/08/03 00:48:04;;;;;;;3.80;2.70;;;;;;;19.84;69.14;96591.60;107266;1273;24370;-80
2023/08/03 00:50:32;;;;;;;4.20;2.70;;;;;;;19.83;69.03;96581.30;107282;1273;22521;-80
2023/08/03 00:53:01;;;;;;;5.20;2.80;;;;;;;19.85;69.59;96579.02;107290;1273;25483;-80
2023/08/03 00:55:29;;;;;;;6.70;2.90;;;;;;;19.92;69.57;96584.71;107319;1255;24641;-80
2023/08/03 00:57:58;;;;;;;4.60;2.60;;;;;;;19.98;69.52;96590.73;107279;1273;22959;-80
2023/08/03 01:00:26;;;;;;;5.90;2.60;;;;;;;20.00;69.41;96590.18;107249;1273;22626;-80
2023/08/03 01:02:54;;;;;;;4.30;2.90;;;;;;;20.02;69.54;96589.08;107295;1273;22692;-80
2023/08/03 01:05:25;;;;;;;3.50;2.60;;;;;;;20.04;69.79;96591.73;107322;1273;25351;-80
2023/08/03 01:07:55;;;;;;;4.20;2.40;;;;;;;20.07;69.65;96599.54;107308;1273;22567;-80
2023/08/03 01:10:23;;;;;;;3.70;2.50;;;;;;;20.05;69.68;96604.23;107261;1273;25263;-80
2023/08/03 01:12:51;;;;;;;5.30;2.40;;;;;;;20.04;69.75;96593.38;107237;1273;22573;-80
2023/08/03 01:15:19;;;;;;;6.40;2.70;;;;;;;20.04;69.93;96593.61;107307;1273;23147;-80
2023/08/03 01:17:48;;;;;;;4.80;2.50;;;;;;;20.04;69.97;96592.45;107250;1273;24045;-80
2023/08/03 01:20:21;;;;;;;4.30;2.90;;;;;;;20.00;69.86;96592.60;107279;1273;25210;-80
2023/08/03 01:22:49;;;;;;;3.30;2.80;;;;;;;20.00;69.96;96591.20;107192;1273;22654;-80
2023/08/03 01:25:17;;;;;;;5.90;2.80;;;;;;;19.99;70.12;96583.38;107161;1273;22630;-80
2023/08/03 01:27:49;;;;;;;3.00;2.60;;;;;;;19.99;70.41;96583.23;107130;1273;22624;-81
2023/08/03 01:30:17;;;;;;;7.70;3.00;;;;;;;20.00;70.34;96574.40;107225;1273;22782;-78
2023/08/03 01:32:45;;;;;;;5.70;3.00;;;;;;;20.01;70.50;96573.00;107263;1260;22777;-80
2023/08/03 01:35:13;;;;;;;4.10;2.40;;;;;;;20.03;70.41;96570.65;107270;1273;24081;-80
2023/08/03 01:37:41;;;;;;;5.40;2.60;;;;;;;20.02;70.55;96565.49;107268;1273;22626;-80
2023/08/03 01:40:10;;;;;;;4.10;2.50;;;;;;;19.99;70.72;96553.54;107362;1273;25633;-79
2023/08/03 01:42:39;;;;;;;3.30;2.40;;;;;;;19.97;70.79;96544.64;107430;1273;23485;-81
2023/08/03 01:45:08;;;;;;;5.70;2.60;;;;;;;19.98;71.43;96543.86;107422;1273;26050;-80
2023/08/03 01:47:36;;;;;;;7.90;3.10;;;;;;;20.00;71.26;96548.15;107325;1273;24272;-80
2023/08/03 01:50:04;;;;;;;5.20;2.50;;;;;;;19.99;71.26;96551.83;107363;1273;22670;-80
2023/08/03 01:52:32;;;;;;;5.10;2.50;;;;;;;19.99;71.22;96556.11;107382;1273;26631;-80
2023/08/03 01:55:00;;;;;;;4.60;2.40;;;;;;;20.00;71.65;96561.67;107322;1273;22517;-79
2023/08/03 01:57:28;;;;;;;4.70;2.50;;;;;;;19.99;71.62;96567.68;107340;1273;24222;-79
2023/08/03 01:59:56;;;;;;;4.20;2.90;;;;;;;19.95;71.41;96567.52;107224;1273;25496;-80
2023/08/03 02:02:24;;;;;;;5.20;2.20;;;;;;;19.88;71.27;96569.17;107264;1273;23882;-79
2023/08/03 02:04:53;;;;;;;4.00;2.30;;;;;;;19.69;71.88;96574.27;107172;1273;22523;-80
2023/08/03 02:07:53;;;;;;;4.00;2.70;;;;;;;19.51;72.89;96577.13;107319;1273;22519;-80
2023/08/03 02:10:23;;;;;;;3.00;2.30;;;;;;;19.40;72.98;96575.32;107114;1273;25326;-80
2023/08/03 02:12:51;;;;;;;3.60;2.40;;;;;;;19.37;72.97;96577.17;107284;1273;23786;-80
2023/08/03 02:15:19;;;;;;;2.50;2.30;;;;;;;19.33;73.70;96576.24;107387;1273;22555;-81
2023/08/03 02:17:47;;;;;;;5.90;3.10;;;;;;;19.24;74.62;96579.27;107393;1273;22651;-79
2023/08/03 02:20:15;;;;;;;7.20;2.90;;;;;;;19.14;75.04;96581.98;107248;1273;23381;-80
2023/08/03 02:22:43;;;;;;;4.90;2.70;;;;;;;19.04;75.22;96587.73;107566;1273;22614;-80
2023/08/03 02:25:11;;;;;;;5.00;2.50;;;;;;;19.00;75.60;96593.73;109419;1273;22546;-80
2023/08/03 02:27:40;;;;;;;4.10;2.60;;;;;;;18.99;75.27;96604.71;110083;1273;22526;-79
2023/08/03 02:30:09;;;;;;;5.10;2.70;;;;;;;18.92;75.45;96614.83;107204;1273;22623;-79
2023/08/03 02:32:37;;;;;;;2.80;2.30;;;;;;;18.87;75.94;96625.10;107264;1273;24267;-80
2023/08/03 02:35:06;;;;;;;4.00;2.50;;;;;;;18.92;76.27;96636.73;107208;1273;22538;-79
2023/08/03 02:37:34;;;;;;;3.30;2.40;;;;;;;19.00;76.68;96645.12;107221;1273;23515;-80
2023/08/03 02:40:04;;;;;;;4.70;2.60;;;;;;;19.04;75.83;96653.32;107344;1273;22772;-80
2023/08/03 02:42:32;;;;;;;4.00;2.90;;;;;;;19.03;76.13;96656.20;107337;1273;24344;-79
2023/08/03 02:45:00;;;;;;;3.70;2.60;;;;;;;19.01;76.59;96662.83;107338;1273;23921;-79
2023/08/03 02:47:28;;;;;;;4.20;2.60;;;;;;;19.02;76.32;96668.77;107244;1273;22514;-80
2023/08/03 02:49:57;;;;;;;7.30;2.70;;;;;;;18.97;76.31;96677.02;107382;1273;22626;-80
2023/08/03 02:52:25;;;;;;;5.40;2.30;;;;;;;18.90;77.22;96681.88;107350;1273;23303;-78
2023/08/03 02:54:53;;;;;;;5.40;2.60;;;;;;;18.87;77.90;96684.83;107372;1273;25378;-78
2023/08/03 02:57:22;;;;;;;4.70;2.60;;;;;;;18.89;77.92;96677.89;107377;1273;22635;-78
2023/08/03 02:59:50;;;;;;;3.30;2.40;;;;;;;18.97;78.14;96695.49;107341;1273;22519;-78
2023/08/03 03:02:19;;;;;;;6.40;2.50;;;;;;;18.93;78.73;96700.63;107338;1273;24184;-79
2023/08/03 03:04:47;;;;;;;4.70;2.80;;;;;;;18.94;78.85;96701.55;107293;1260;22518;-80
2023/08/03 03:07:16;;;;;;;3.40;2.80;;;;;;;19.00;79.06;96708.29;107153;1273;22510;-80
2023/08/03 03:09:44;;;;;;;3.20;2.80;;;;;;;18.93;80.95;96717.92;107371;1273;22736;-79
2023/08/03 03:12:12;;;;;;;3.80;2.60;;;;;;;18.86;81.23;96723.59;107311;1273;22564;-79
2023/08/03 03:14:44;;;;;;;4.70;2.60;;;;;;;18.84;82.23;96726.22;107376;1273;22577;-84
2023/08/03 03:17:12;;;;;;;5.50;2.90;;;;;;;18.86;82.21;96733.41;107182;1273;22538;-78
2023/08/03 03:19:40;;;;;;;4.50;3.20;;;;;;;18.91;82.70;96733.75;107264;1252;22731;-78
2023/08/03 03:22:08;;;;;;;4.40;2.80;;;;;;;18.96;82.66;96739.08;107294;1273;23800;-78
2023/08/03 03:24:36;;;;;;;5.40;3.10;;;;;;;18.99;83.31;96737.46;107221;1273;22627;-78
2023/08/03 03:27:05;;;;;;;4.50;3.40;;;;;;;18.99;82.97;96755.23;107307;1273;22640;-88
2023/08/03 03:29:34;;;;;;;7.20;3.10;;;;;;;19.00;84.13;96768.67;107250;1273;22547;-83
2023/08/03 03:32:02;;;;;;;5.50;3.40;;;;;;;18.97;85.47;96775.73;107314;1273;22661;-83
2023/08/03 03:34:32;;;;;;;6.90;3.10;;;;;;;18.88;87.28;96770.92;107242;1273;22630;-83
2023/08/03 03:37:01;;;;;;;6.40;3.70;;;;;;;18.83;87.43;96766.69;107309;1273;22523;-83
2023/08/03 03:39:29;;;;;;;5.40;3.50;;;;;;;18.76;88.65;96771.63;107356;1273;22570;-83
2023/08/03 03:41:59;;;;;;;4.80;3.20;;;;;;;18.73;89.69;96771.05;107262;1273;22576;-82
2023/08/03 03:44:29;;;;;;;4.50;3.00;;;;;;;18.70;90.03;96784.89;107378;1273;22534;-83
2023/08/03 03:46:57;;;;;;;3.10;2.80;;;;;;;18.65;91.68;96789.91;107339;1273;24066;-82
2023/08/03 03:49:27;;;;;;;8.40;3.50;;;;;;;18.63;91.60;96791.77;107326;1273;22517;-82
2023/08/03 03:51:55;;;;;;;6.20;3.40;;;;;;;18.60;91.73;96788.17;107407;1273;22588;-82
2023/08/03 03:54:24;;;;;;;7.10;3.10;;;;;;;18.56;93.82;96784.94;107488;1273;22556;-82
2023/08/03 03:56:55;;;;;;;5.70;3.20;;;;;;;18.48;93.35;96778.26;107540;1273;22577;-83
2023/08/03 03:59:23;;;;;;;6.20;3.20;;;;;;;18.42;94.28;96772.13;107556;1273;22525;-83
2023/08/03 04:01:52;;;;;;;4.60;3.20;;;;;;;18.41;92.72;96769.79;107328;1273;22725;-82
2023/08/03 04:04:20;;;;;;;8.00;3.80;;;;;;;18.41;92.51;96775.08;107407;1273;25305;-83
2023/08/03 04:06:48;;;;;;;5.20;3.40;;;;;;;18.41;92.64;96777.73;107674;1273;25223;-81
2023/08/03 04:09:16;;;;;;;4.60;2.80;;;;;;;18.42;92.77;96770.48;107453;1273;22525;-84
2023/08/03 04:11:44;;;;;;;6.40;3.10;;;;;;;18.44;95.00;96766.93;107380;1271;22755;-79
2023/08/03 04:14:12;;;;;;;3.40;3.00;;;;;;;18.44;95.37;96757.57;107410;1273;22515;-82
2023/08/03 04:16:40;;;;;;;6.10;3.30;;;;;;;18.43;97.11;96741.35;107378;1273;24052;-82
2023/08/03 04:19:08;;;;;;;8.10;3.10;;;;;;;18.43;98.49;96733.02;107361;1262;22621;-78
2023/08/03 04:21:37;;;;;;;5.00;3.30;;;;;;;18.42;98.56;96741.82;107363;1250;25514;-81
2023/08/03 04:24:05;;;;;;;3.50;3.00;;;;;;;18.40;98.26;96748.58;107351;1273;22631;-82
2023/08/03 04:26:34;;;;;;;3.50;3.00;;;;;;;18.41;98.53;96754.59;107387;1262;23889;-80
2023/08/03 04:29:04;;;;;;;4.80;3.20;;;;;;;18.41;96.57;96755.52;107382;1273;22540;-81
2023/08/03 04:31:32;;;;;;;4.40;3.00;;;;;;;18.47;98.66;96746.38;107330;1273;22529;-79
2023/08/03 04:34:03;;;;;;;5.90;2.70;;;;;;;18.48;99.23;96742.02;107270;1273;24378;-81
2023/08/03 04:36:31;;;;;;;5.10;2.60;;;;;;;18.49;98.59;96741.95;107239;1273;22646;-80
2023/08/03 04:38:59;;;;;;;3.50;2.90;;;;;;;18.58;97.92;96736.64;107361;1273;22760;-79
2023/08/03 04:41:29;;;;;;;5.40;2.70;;;;;;;18.67;97.15;96736.85;107371;1273;24390;-79
2023/08/03 04:43:57;;;;;;;5.80;2.90;;;;;;;18.80;97.48;96736.03;107324;1273;22524;-79
2023/08/03 04:46:27;;;;;;;5.10;3.00;;;;;;;18.85;97.42;96740.35;107329;1273;24352;-78
2023/08/03 04:48:56;;;;;;;3.90;2.80;;;;;;;18.89;96.62;96741.38;107171;1273;24244;-77
2023/08/03 04:51:24;;;;;;;3.40;2.90;;;;;;;18.93;96.57;96743.13;107222;1273;22540;-79
2023/08/03 04:53:52;;;;;;;4.60;3.00;;;;;;;18.96;96.91;96744.06;107318;1262;22511;-77
2023/08/03 04:56:24;;;;;;;4.70;3.20;;;;;;;18.97;97.05;96741.42;107768;1273;22618;-77
2023/08/03 04:58:52;;;;;;;5.60;3.10;;;;;;;18.99;96.97;96739.41;107152;1273;24238;-76
2023/08/03 05:01:20;;;;;;;4.10;3.00;;;;;;;19.04;96.85;96737.48;107259;1273;22596;-76
2023/08/03 05:03:48;;;;;;;5.00;3.00;;;;;;;19.12;96.41;96730.73;106826;1273;22516;-76
2023/08/03 05:06:17;;;;;;;4.40;3.00;;;;;;;19.19;96.71;96733.73;106962;1273;22523;-75
2023/08/03 05:08:50;;;;;;;4.20;2.70;;;;;;;19.22;96.58;96734.98;106910;1256;22522;-76
2023/08/03 05:11:19;;;;;;;4.30;3.00;;;;;;;19.26;96.11;96732.67;106952;1273;22526;-79
2023/08/03 05:13:47;;;;;;;5.30;3.10;;;;;;;19.32;95.88;96726.77;107222;1273;25305;-76
2023/08/03 05:16:19;;;;;;;4.40;3.10;;;;;;;19.40;95.75;96728.67;107203;1273;22549;-77
2023/08/03 05:18:48;;;;;;;6.10;3.60;;;;;;;19.48;95.66;96725.80;106922;1273;22522;-77
2023/08/03 05:21:16;;;;;;;4.90;3.40;;;;;;;19.58;95.60;96727.39;106881;1273;22525;-77
2023/08/03 05:23:45;;;;;;;6.30;3.60;;;;;;;19.65;95.28;96741.80;107339;1273;22547;-76
2023/08/03 05:26:14;;;;;;;15.40;5.60;;;;;;;19.65;95.11;96746.81;107589;1273;22702;-77
2023/08/03 05:28:42;;;;;;;11.70;6.90;;;;;;;19.66;95.08;96750.02;107282;1273;24244;-77
2023/08/03 05:31:10;;;;;;;10.20;5.70;;;;;;;19.64;94.94;96753.02;107366;1273;23858;-78
2023/08/03 05:33:38;;;;;;;8.20;4.70;;;;;;;19.63;95.03;96760.44;107897;1273;24243;-79
2023/08/03 05:36:08;;;;;;;21.60;8.60;;;;;;;19.63;94.92;96770.12;107867;1273;22538;-79
2023/08/03 05:38:36;;;;;;;16.00;6.20;;;;;;;19.62;94.90;96772.37;107629;1273;25406;-79
2023/08/03 05:41:12;;;;;;;10.40;5.00;;;;;;;19.60;94.87;96778.21;107260;1273;23258;-80
2023/08/03 05:43:40;;;;;;;25.10;11.10;;;;;;;19.60;95.02;96784.30;107267;1273;25265;-79
2023/08/03 05:46:13;;;;;;;15.10;7.30;;;;;;;19.56;95.14;96789.61;107362;1273;24089;-83
2023/08/03 05:48:42;;;;;;;11.00;6.10;;;;;;;19.48;95.11;96793.64;107379;1273;22659;-81
2023/08/03 05:51:19;;;;;;;7.30;4.90;;;;;;;19.43;95.93;96796.73;108232;1273;22638;-79
2023/08/03 05:53:47;;;;;;;5.80;3.80;;;;;;;19.35;96.67;96803.73;108211;1273;22546;-80
2023/08/03 05:56:15;;;;;;;7.30;4.10;;;;;;;19.26;96.57;96806.17;107836;1273;22545;-79
2023/08/03 05:58:43;;;;;;;9.80;4.60;;;;;;;19.20;96.40;96810.27;107714;1273;22743;-79
2023/08/03 06:01:12;;;;;;;8.80;4.00;;;;;;;19.17;96.44;96816.81;107487;1273;22616;-79
2023/08/03 06:03:46;;;;;;;9.00;3.90;;;;;;;19.14;97.36;96814.61;107498;1262;22550;-80
2023/08/03 06:06:17;;;;;;;5.50;3.50;;;;;;;19.08;98.02;96813.88;107481;1273;22600;-81
2023/08/03 06:08:56;;;;;;;7.30;3.30;;;;;;;19.02;97.96;96811.41;107533;1273;22521;-80
2023/08/03 06:11:24;;;;;;;6.80;4.00;;;;;;;18.98;99.96;96816.94;108010;1272;22594;-81
2023/08/03 06:13:55;;;;;;;10.00;3.80;;;;;;;18.89;99.95;96815.85;107921;1273;22539;-81
2023/08/03 06:16:24;;;;;;;7.50;4.40;;;;;;;18.83;99.37;96813.94;107982;1273;22636;-82
2023/08/03 06:18:56;;;;;;;6.00;3.80;;;;;;;18.81;99.47;96807.60;107913;1273;22576;-82
2023/08/03 06:21:26;;;;;;;4.30;3.80;;;;;;;18.82;99.89;96813.54;107871;1273;22544;-79
2023/08/03 06:23:57;;;;;;;5.00;3.50;;;;;;;18.79;100.00;96802.69;107834;1273;25360;-80
2023/08/03 06:26:31;;;;;;;5.80;4.20;;;;;;;18.79;99.88;96801.60;107356;1273;25427;-80
2023/08/03 06:29:02;;;;;;;;;;;;;;;18.83;99.76;96812.07;107529;1273;24185;-80
2023/08/03 06:31:31;;;;;;;6.50;3.70;;;;;;;18.81;100.00;96809.24;107511;1273;22621;-81
2023/08/03 06:33:59;;;;;;;5.50;3.80;;;;;;;18.75;100.00;96818.48;107458;1273;25390;-81
2023/08/03 06:36:28;;;;;;;9.10;4.00;;;;;;;18.76;100.00;96822.93;107313;1273;22523;-81
2023/08/03 06:38:57;;;;;;;5.10;3.80;;;;;;;18.76;100.00;96847.50;107375;1273;25497;-81
2023/08/03 06:41:26;;;;;;;6.50;4.10;;;;;;;18.76;100.00;96860.73;107567;1273;22526;-81
2023/08/03 06:43:56;;;;;;;5.60;3.90;;;;;;;18.73;100.00;96860.31;107415;1273;22525;-81
2023/08/03 06:46:27;;;;;;;6.50;4.50;;;;;;;18.69;100.00;96855.74;107350;1273;22617;-81
2023/08/03 06:48:56;;;;;;;5.90;4.10;;;;;;;18.65;100.00;96851.73;107312;1262;22526;-81
2023/08/03 06:51:24;;;;;;;5.80;3.90;;;;;;;18.62;100.00;96846.50;107491;1273;22527;-81
2023/08/03 06:53:52;;;;;;;8.10;4.50;;;;;;;18.59;100.00;96845.30;107385;1273;22745;-81
2023/08/03 06:56:20;;;;;;;6.30;4.20;;;;;;;18.59;100.00;96838.99;107438;1273;22520;-81
2023/08/03 06:58:48;;;;;;;6.00;4.50;;;;;;;18.63;100.00;96836.98;107396;1273;22668;-81
2023/08/03 07:01:16;;;;;;;9.10;5.50;;;;;;;18.66;100.00;96842.39;107409;1273;24361;-81
2023/08/03 07:03:45;;;;;;;10.00;5.10;;;;;;;18.71;100.00;96845.48;107429;1273;22631;-81
2023/08/03 07:06:13;;;;;;;8.50;5.50;;;;;;;18.76;100.00;96857.00;107473;1273;24191;-80
2023/08/03 07:08:41;;;;;;;9.10;5.10;;;;;;;18.79;100.00;96861.39;107428;1273;22632;-80
2023/08/03 07:11:09;;;;;;;13.60;7.10;;;;;;;18.79;100.00;96873.48;107384;1273;22624;-81
2023/08/03 07:13:37;;;;;;;10.00;6.70;;;;;;;18.79;100.00;96882.77;107480;1273;24374;-80
2023/08/03 07:16:08;;;;;;;13.10;9.50;;;;;;;18.77;100.00;96886.48;107372;1273;24364;-80
2023/08/03 07:18:37;;;;;;;16.40;9.70;;;;;;;18.72;100.00;96892.66;107226;1273;22514;-80
2023/08/03 07:21:05;;;;;;;11.30;7.40;;;;;;;18.69;100.00;96884.83;107426;1273;23456;-80
2023/08/03 07:23:34;;;;;;;9.20;5.70;;;;;;;18.69;100.00;96881.01;107436;1273;22540;-80
2023/08/03 07:26:02;;;;;;;9.30;5.60;;;;;;;18.70;100.00;96912.43;107395;1273;22539;-80
2023/08/03 07:28:30;;;;;;;9.20;5.40;;;;;;;18.70;100.00;96924.83;107294;1273;22570;-81
2023/08/03 07:30:58;;;;;;;7.10;4.60;;;;;;;18.67;100.00;96929.64;107451;1273;24225;-82
2023/08/03 07:33:26;;;;;;;8.20;4.80;;;;;;;18.57;100.00;96946.69;107300;1273;25637;-86
2023/08/03 07:35:54;;;;;;;6.60;3.40;;;;;;;18.28;100.00;96936.79;107270;1273;22538;-85
2023/08/03 07:38:22;;;;;;;6.10;3.80;;;;;;;17.98;100.00;96922.11;107389;1251;22545;-87
2023/08/03 07:40:50;;;;;;;6.90;4.80;;;;;;;17.76;100.00;96925.70;107397;1273;22683;-88
2023/08/03 07:43:18;;;;;;;8.80;5.50;;;;;;;17.64;100.00;96934.41;107385;1273;24269;-91
2023/08/03 07:45:46;;;;;;;12.90;7.30;;;;;;;17.62;100.00;96924.50;107643;1273;22522;-91
2023/08/03 07:48:18;;;;;;;7.10;5.10;;;;;;;17.67;100.00;96919.52;109014;1273;23385;-93
2023/08/03 07:50:46;;;;;;;8.90;6.00;;;;;;;17.74;100.00;96915.09;107451;1273;24170;-89
2023/08/03 07:53:14;;;;;;;10.10;5.70;;;;;;;17.83;100.00;96900.20;107429;1273;22538;-91
2023/08/03 07:55:42;;;;;;;35.90;7.40;;;;;;;17.91;100.00;96905.67;107396;1273;22728;-93
2023/08/03 07:58:13;;;;;;;12.00;4.30;;;;;;;17.97;100.00;96912.67;107462;1250;24197;-92
2023/08/03 08:00:41;;;;;;;21.20;6.30;;;;;;;18.04;100.00;96912.36;107514;1273;22518;-91
2023/08/03 08:03:09;;;;;;;9.50;4.20;;;;;;;18.10;100.00;96915.70;107451;1273;22549;-87
2023/08/03 08:05:37;;;;;;;11.20;4.90;;;;;;;18.12;100.00;96922.13;107566;1273;22522;-86
2023/08/03 08:08:05;;;;;;;13.50;4.90;;;;;;;18.14;100.00;96916.23;107368;1273;25639;-88
2023/08/03 08:10:33;;;;;;;12.10;4.70;;;;;;;18.16;100.00;96908.15;107485;1273;22631;-90
2023/08/03 08:13:01;;;;;;;8.00;4.00;;;;;;;18.16;100.00;96912.35;107621;1273;22706;-90
2023/08/03 08:15:29;;;;;;;7.40;4.40;;;;;;;18.20;100.00;96915.11;108256;1273;22575;-89
2023/08/03 08:17:58;;;;;;;6.10;4.20;;;;;;;18.21;100.00;96912.58;107886;1273;22538;-89
2023/08/03 08:20:26;;;;;;;6.00;3.40;;;;;;;18.27;100.00;96912.00;107976;1273;24652;-88
2023/08/03 08:22:54;;;;;;;5.50;3.30;;;;;;;18.41;100.00;96911.84;108513;1273;22557;-86
2023/08/03 08:25:21;;;;;;;6.40;3.60;;;;;;;18.60;100.00;96904.86;109241;1263;22637;-91
2023/08/03 08:27:51;;;;;;;5.30;3.60;;;;;;;18.71;100.00;96908.86;109593;1273;22846;-88
2023/08/03 08:30:20;;;;;;;9.80;4.10;;;;;;;18.80;100.00;96907.10;110414;1273;22707;-87
2023/08/03 08:32:48;;;;;;;6.80;3.60;;;;;;;18.87;100.00;96906.29;110253;1273;22744;-90
2023/08/03 08:35:17;;;;;;;5.40;3.40;;;;;;;18.92;100.00;96909.92;109400;1251;24208;-88
2023/08/03 08:37:45;;;;;;;4.80;3.40;;;;;;;18.96;100.00;96918.86;107599;1253;25479;-90
2023/08/03 08:40:13;;;;;;;7.70;4.00;;;;;;;19.01;100.00;96925.45;109352;1256;22806;-91
2023/08/03 08:42:41;;;;;;;5.90;3.70;;;;;;;19.06;100.00;96927.05;109177;1274;22723;-90
2023/08/03 08:45:09;;;;;;;5.60;3.40;;;;;;;19.10;100.00;96920.05;107362;1274;22620;-88
2023/08/03 08:47:39;;;;;;;4.90;3.10;;;;;;;19.12;100.00;96913.52;107532;1251;22537;-88
2023/08/03 08:50:08;;;;;;;5.90;3.90;;;;;;;19.08;100.00;96924.55;107049;1274;22518;-90
2023/08/03 08:52:44;;;;;;;6.80;3.30;;;;;;;19.12;100.00;96926.63;107508;1274;22513;-88
2023/08/03 08:55:18;;;;;;;5.00;3.50;;;;;;;19.21;100.00;96914.84;107563;1274;22535;-90
2023/08/03 08:58:07;;;;;;;10.50;3.60;;;;;;;19.27;100.00;96907.39;107657;1274;23010;-88
2023/08/03 09:00:46;;;;;;;5.40;4.00;;;;;;;19.23;100.00;96898.46;107373;1274;25498;-89
2023/08/03 09:03:15;;;;;;;7.40;4.60;;;;;;;19.21;100.00;96888.70;107868;1274;22587;-89
2023/08/03 09:05:58;;;;;;;6.70;4.10;;;;;;;19.22;100.00;96893.15;108252;1274;24185;-89
2023/08/03 09:08:49;;;;;;;6.80;3.70;;;;;;;19.33;100.00;96894.31;108292;1274;22514;-87
2023/08/03 09:11:17;;;;;;;6.80;3.70;;;;;;;19.41;100.00;96895.61;108202;1275;23952;-91
2023/08/03 09:13:48;;;;;;;7.30;4.80;;;;;;;19.42;100.00;96913.50;108016;1274;24238;-90
2023/08/03 09:16:26;;;;;;;6.20;4.40;;;;;;;19.43;100.00;96921.61;107800;1274;22528;-86
2023/08/03 09:18:54;;;;;;;6.70;3.50;;;;;;;19.48;100.00;96908.61;107594;1274;22730;-90
2023/08/03 09:21:22;;;;;;;10.00;3.00;;;;;;;19.57;100.00;96894.92;107669;1274;25830;-88
2023/08/03 09:23:55;;;;;;;10.20;3.80;;;;;;;19.66;100.00;96904.54;107485;1275;22530;-87
2023/08/03 09:26:26;;;;;;;23.20;5.10;;;;;;;19.63;100.00;96918.30;107723;1274;22631;-91
2023/08/03 09:28:57;;;;;;;11.90;4.60;;;;;;;19.64;100.00;96924.86;107597;1259;25315;-87
2023/08/03 09:31:26;;;;;;;10.70;5.40;;;;;;;19.69;100.00;96931.48;107575;1275;22826;-91
2023/08/03 09:34:00;;;;;;;8.00;5.40;;;;;;;19.79;100.00;96921.06;107312;1276;22522;-90
2023/08/03 09:36:28;;;;;;;8.30;5.20;;;;;;;19.83;100.00;96925.23;107302;1276;25486;-88
2023/08/03 09:39:13;;;;;;;9.20;5.00;;;;;;;19.87;100.00;96922.59;107439;1276;24390;-87
2023/08/03 09:41:45;;;;;;;7.70;4.60;;;;;;;19.91;100.00;96914.02;107363;1276;22629;-86
2023/08/03 09:44:56;;;;;;;5.80;4.20;;;;;;;19.91;100.00;96887.70;107424;1276;22534;-87
2023/08/03 09:48:53;;;;;;;6.10;3.70;;;;;;;19.78;99.87;96871.24;107108;1279;25404;-89
2023/08/03 09:53:10;;;;;;;4.80;3.70;;;;;;;19.65;99.70;96888.35;106759;1272;24357;-90
2023/08/03 09:57:38;;;;;;;4.90;3.70;;;;;;;19.61;99.82;96891.97;106501;1287;22644;-90
2023/08/03 10:02:07;;;;;;;6.60;3.50;;;;;;;19.70;99.82;96891.11;105859;1298;22540;-90
2023/08/03 10:06:36;;;;;;;9.50;3.50;;;;;;;19.75;99.30;96896.37;105929;1295;24391;-89
2023/08/03 10:10:15;;;;;;;4.50;3.30;;;;;;;19.71;99.19;96867.84;105963;1294;25529;-90
2023/08/03 10:12:47;;;;;;;5.80;2.60;;;;;;;19.65;98.94;96888.66;105957;1294;22574;-86
2023/08/03 10:15:17;;;;;;;5.80;2.90;;;;;;;19.62;99.00;96906.90;106392;1290;24205;-89
2023/08/03 10:17:46;;;;;;;7.00;3.00;;;;;;;19.64;99.14;96913.38;106966;1290;22551;-88
2023/08/03 10:20:14;;;;;;;7.00;2.90;;;;;;;19.65;98.96;96930.98;106534;1288;22534;-91
2023/08/03 10:23:21;;;;;;;4.80;2.90;;;;;;;19.63;98.67;96935.48;106694;1288;22589;-91
2023/08/03 10:25:53;;;;;;;5.50;3.20;;;;;;;19.60;98.54;96931.40;106805;1288;24260;-89
2023/08/03 10:28:23;;;;;;;5.60;3.10;;;;;;;19.48;97.84;96929.45;106576;1284;22593;-90
2023/08/03 10:31:02;;;;;;;4.60;2.80;;;;;;;19.43;98.28;96922.02;106346;1285;25511;-92
2023/08/03 10:33:51;;;;;;;3.50;2.90;;;;;;;19.39;97.92;96901.29;106532;1274;22988;-87
2023/08/03 10:36:26;;;;;;;5.50;3.50;;;;;;;19.37;97.97;96905.27;106412;1276;22552;-86
2023/08/03 10:39:02;;;;;;;4.40;3.00;;;;;;;19.30;97.55;96933.08;107212;1276;24340;-86
2023/08/03 10:41:38;;;;;;;7.70;3.50;;;;;;;19.20;97.67;96946.12;107162;1276;22535;-83
2023/08/03 10:44:09;;;;;;;5.20;3.50;;;;;;;19.15;97.63;96942.65;107379;1276;25486;-84
2023/08/03 10:46:41;;;;;;;7.70;3.40;;;;;;;19.14;97.82;96934.98;107246;1276;24349;-81
2023/08/03 10:49:28;;;;;;;6.40;3.30;;;;;;;19.17;97.43;96942.42;107355;1276;22694;-83
2023/08/03 10:52:16;;;;;;;5.50;3.20;;;;;;;19.17;97.42;96942.65;107292;1276;23993;-81
2023/08/03 10:54:45;;;;;;;5.40;3.20;;;;;;;19.18;97.29;96947.98;107321;1276;23905;-85
2023/08/03 10:57:17;;;;;;;10.00;3.90;;;;;;;19.13;96.94;96949.41;107407;1276;25305;-91
2023/08/03 10:59:47;;;;;;;5.80;3.30;;;;;;;19.04;96.82;96957.38;107427;1276;25389;-88
2023/08/03 11:02:22;;;;;;;5.70;3.40;;;;;;;18.97;97.08;96965.03;107399;1276;22633;-87
2023/08/03 11:04:56;;;;;;;7.30;3.30;;;;;;;18.98;97.02;96957.41;107449;1276;22525;-90
2023/08/03 11:07:45;;;;;;;8.30;3.70;;;;;;;18.97;96.97;96964.34;107318;1276;22562;-89
2023/08/03 11:10:15;;;;;;;7.80;4.10;;;;;;;18.97;97.12;96976.10;107386;1276;25284;-90
2023/08/03 11:12:46;;;;;;;5.70;4.00;;;;;;;18.97;96.74;96975.73;107376;1276;22558;-91
2023/08/03 11:15:16;;;;;;;7.20;3.90;;;;;;;18.87;96.58;96988.95;107273;1276;22538;-89
2023/08/03 11:17:49;;;;;;;10.60;4.10;;;;;;;18.83;97.17;96983.94;107393;1276;24228;-90
2023/08/03 11:20:19;;;;;;;7.70;4.30;;;;;;;18.82;97.13;96978.39;107498;1276;22730;-90
2023/08/03 11:22:47;;;;;;;6.10;3.90;;;;;;;18.81;97.16;96980.40;107096;1275;22555;-90
2023/08/03 11:25:19;;;;;;;7.50;3.80;;;;;;;18.86;97.22;96978.58;107545;1275;23315;-87
2023/08/03 11:27:48;;;;;;;10.00;4.20;;;;;;;18.92;97.56;96972.71;107586;1256;22564;-90
2023/08/03 11:30:19;;;;;;;9.20;4.10;;;;;;;19.07;98.00;96961.61;107417;1276;22594;-89
2023/08/03 11:32:47;;;;;;;7.70;4.00;;;;;;;19.19;97.68;96966.39;107519;1276;22729;-85
2023/08/03 11:35:15;;;;;;;10.60;3.70;;;;;;;19.28;97.52;96981.13;107411;1275;24444;-85
2023/08/03 11:37:44;;;;;;;7.40;3.70;;;;;;;19.36;97.68;96987.67;107309;1276;22585;-88
2023/08/03 11:40:12;;;;;;;7.80;4.00;;;;;;;19.41;97.09;96997.09;107357;1275;22530;-86
2023/08/03 11:42:43;;;;;;;6.80;4.20;;;;;;;19.43;97.04;97006.69;107342;1275;22658;-85
2023/08/03 11:45:14;;;;;;;8.60;4.20;;;;;;;19.50;97.69;96985.98;107368;1276;25325;-85